Latest Coastal Weather Observations for Avalon

IDV60701

Issued at 3:41 am EST Wednesday 22 April 2015 (issued every 10 minutes, with the page automatically refreshed every 10 minutes)

About coastal observations | Map of coastal stations | Coastal observations for VIC | Marine services | Other Formats
Station Details ID: 087113 Name: AVALON AIRPORT Lat: -38.03 Lon: 144.48 Height: 10.6 m
Data from the previous 72 hours. | See also: Recent months at Avalon
Date/Time
EST
Temp

°C
Wind Pressure Rain
since 9am
mm
Weather Cloud Vis
km
Sea
Height
m
Swell
Dir
 
Speed
knots
Gust
knots
hPa Trend Height
m
Period
s
Dir
22/03:30am 11.7 SE 8 10 1027.1 - 0.0 - - 10 - - - -
22/03:00am 11.0 SSE 9 11 1027.3 - 0.0 - - 10 - - - -
22/02:30am 10.1 SSE 7 7 1027.5 - 0.0 - - 10 - - - -
22/02:00am 10.2 S 8 10 1027.7 - 0.0 - - 10 - - - -
22/01:30am 9.7 S 7 8 1028.2 - 0.0 - - 10 - - - -
22/01:00am 10.2 SSE 7 8 1028.4 - 0.0 - - 10 - - - -
22/12:30am 11.6 SE 9 10 1028.6 - 0.0 - - 10 - - - -
22/12:00am 12.1 SE 10 13 1029.0 - 0.0 - - 10 - - - -
 
Date/Time
EST
Temp

°C
Wind Pressure Rain
since 9am
mm
Weather Cloud Vis
km
Sea
Height
m
Swell
Dir
 
Speed
knots
Gust
knots
hPa Trend Height
m
Period
s
Dir
21/11:30pm 12.0 ESE 10 12 1029.4 - 0.0 - - 10 - - - -
21/11:00pm 12.2 ESE 11 15 1029.6 - 0.0 - - 10 - - - -
21/10:30pm 12.3 SE 10 12 1029.9 - 0.0 - - 10 - - - -
21/10:00pm 12.4 SE 10 13 1030.0 - 0.0 - - 10 - - - -
21/09:30pm 12.8 SE 10 12 1030.0 - 0.0 - - 10 - - - -
21/09:00pm 12.4 SSE 10 13 1029.8 - 0.0 - - 10 - - - -
21/08:30pm 12.1 SSE 9 11 1029.9 - 0.0 - - 10 - - - -
21/08:00pm 12.2 SSE 8 11 1030.1 - 0.0 - - 10 - - - -
21/07:30pm 12.0 SSE 7 9 1030.2 - 0.0 - - 10 - - - -
21/07:00pm 12.7 SSE 9 11 1030.4 - 0.0 - - 10 - - - -
21/06:30pm 13.5 S 11 14 1030.1 - 0.0 - - 10 - - - -
21/06:00pm 13.8 S 12 16 1030.1 - 0.0 - - 10 - - - -
21/05:30pm 14.4 S 13 17 1030.1 - 0.0 - - 10 - - - -
21/05:00pm 15.3 SSE 14 17 1030.2 - 0.0 - - 10 - - - -
21/04:30pm 16.0 SSE 15 18 1030.3 - 0.0 - - 10 - - - -
21/04:00pm 16.3 SSE 17 21 1030.3 - 0.0 - - 10 - - - -
21/03:30pm 16.8 S 18 22 1030.2 - 0.0 - Partly cloudy 10 - - - -
21/03:00pm 17.0 S 16 20 1030.2 - 0.0 - Mostly clear 10 - - - -
21/02:30pm 16.3 S 17 21 1030.2 - 0.0 - Partly cloudy 10 - - - -
21/02:00pm 17.6 S 17 22 1030.3 - 0.0 - Partly cloudy 10 - - - -
21/01:30pm 17.8 S 17 21 1030.7 - 0.0 - Partly cloudy 10 - - - -
21/01:00pm 17.2 S 17 21 1030.9 - 0.0 - Partly cloudy 10 - - - -
21/12:30pm 17.3 S 15 20 1031.3 - 0.0 - Partly cloudy 10 - - - -
21/12:00pm 16.8 S 18 25 1032.0 - 0.0 - Mostly cloudy 10 - - - -
21/11:30am 17.2 S 18 22 1032.3 - 0.0 - Partly cloudy 10 - - - -
21/11:00am 17.1 S 17 22 1032.6 - 0.0 - Partly cloudy 10 - - - -
21/10:30am 16.9 SSE 16 20 1032.7 - 0.0 - Partly cloudy 10 - - - -
21/10:00am 14.9 SE 7 11 1033.0 - 0.0 - Partly cloudy 10 - - - -
21/09:30am 13.8 E 6 7 1033.2 - 0.0 - - 10 - - - -
21/09:00am 14.6 ESE 5 8 1033.3 - 0.0 - Mostly clear 10 - - - -
21/08:30am 11.5 CALM 0 0 1033.5 - 0.0 - Partly cloudy 10 - - - -
21/08:00am 9.7 WNW 1 3 1033.6 - 0.0 - Partly cloudy 10 - - - -
21/07:30am 8.0 WNW 3 5 1033.5 - 0.0 - Partly cloudy 10 - - - -
21/07:00am 7.4 WNW 5 6 1033.4 - 0.0 - Partly cloudy 10 - - - -
21/06:30am 7.1 NW 5 6 1033.3 - 0.0 - Partly cloudy 10 - - - -
21/06:00am 7.4 NW 5 6 1033.3 - 0.0 - Cloudy 10 - - - -
21/05:30am 6.9 NW 5 7 1033.0 - 0.0 - Partly cloudy 10 - - - -
21/05:00am 6.2 NW 5 6 1032.8 - 0.0 - - 10 - - - -
21/04:30am 7.8 NW 5 6 1033.0 - 0.0 - Partly cloudy 10 - - - -
21/04:00am 7.4 NNW 6 6 1033.0 - 0.0 - - 10 - - - -
21/03:30am 7.6 NNW 5 6 1033.2 - 0.0 - - 10 - - - -
21/03:00am 7.7 NW 5 7 1033.5 - 0.0 - Cloudy 10 - - - -
21/02:30am 8.0 NW 3 5 1033.9 - 0.0 - Partly cloudy 10 - - - -
21/02:00am 8.2 NW 4 5 1034.3 - 0.0 - Partly cloudy 10 - - - -
21/01:30am 9.0 CALM 0 3 1034.5 - 0.0 - Partly cloudy 10 - - - -
21/01:00am 9.9 E 3 4 1034.6 - 0.0 - Partly cloudy 10 - - - -
21/12:30am 10.3 ESE 6 7 1034.6 - 0.0 - Partly cloudy 10 - - - -
21/12:00am 11.6 ESE 7 9 1034.7 - 0.0 - Mostly cloudy 10 - - - -
 
Date/Time
EST
Temp

°C
Wind Pressure Rain
since 9am
mm
Weather Cloud Vis
km
Sea
Height
m
Swell
Dir
 
Speed
knots
Gust
knots
hPa Trend Height
m
Period
s
Dir
20/11:30pm 11.9 ESE 8 9 1035.0 - 0.0 - Partly cloudy 10 - - - -
20/11:00pm 12.4 SE 8 10 1035.2 - 0.0 - Partly cloudy 10 - - - -
20/10:30pm 11.9 SE 8 10 1035.4 - 0.0 - Partly cloudy 10 - - - -
20/10:00pm 11.2 SE 8 11 1035.6 - 0.0 - Partly cloudy 10 - - - -
20/09:30pm 11.5 SSE 8 11 1035.6 - 0.0 - Partly cloudy 10 - - - -
20/09:00pm 10.9 SSE 9 10 1035.6 - 0.0 - Mostly clear 10 - - - -
20/08:30pm 11.1 SSE 9 11 1035.6 - 0.0 - Partly cloudy 10 - - - -
20/08:00pm 11.4 SSE 9 11 1035.5 - 0.0 - Partly cloudy 10 - - - -
20/07:30pm 11.2 S 9 11 1035.5 - 0.0 - - 10 - - - -
20/07:00pm 11.6 SSE 9 12 1035.5 - 0.0 - Partly cloudy 10 - - - -
20/06:30pm 12.3 SSE 9 13 1035.4 - 0.0 - Partly cloudy 10 - - - -
20/06:00pm 12.8 SSE 13 16 1035.3 - 0.0 - Cloudy 10 - - - -
20/05:30pm 13.5 SSE 12 16 1035.2 - 0.0 - Partly cloudy 10 - - - -
20/05:00pm 13.6 SSE 14 17 1035.1 - 0.0 - Partly cloudy 10 - - - -
20/04:30pm 14.0 SSE 14 18 1035.0 - 0.0 - Partly cloudy 10 - - - -
20/04:00pm 15.2 SSE 14 19 1035.0 - 0.0 - Partly cloudy 10 - - - -
20/03:30pm 15.0 SSE 14 19 1035.1 - 0.0 - Partly cloudy 10 - - - -
20/03:00pm 15.8 SSE 15 19 1035.1 - 0.0 - Partly cloudy 10 - - - -
20/02:30pm 15.4 SSE 16 21 1035.1 - 0.0 - Partly cloudy 10 - - - -
20/02:00pm 15.7 SSE 16 20 1035.1 - 0.0 - - 10 - - - -
20/01:30pm 15.1 SSE 15 19 1035.3 - 0.0 - Partly cloudy 10 - - - -
20/01:00pm 16.1 SSE 14 19 1035.4 - 0.0 - - 10 - - - -
20/12:30pm 15.5 SE 12 16 1035.9 - 0.0 - Partly cloudy 10 - - - -
20/12:00pm 15.6 SSE 13 17 1036.4 - 0.0 - - 10 - - - -
20/11:30am 15.5 SSE 13 18 1036.8 - 0.0 - - 10 - - - -
20/11:00am 15.4 SE 13 17 1037.0 - 0.0 - Partly cloudy 10 - - - -
20/10:30am 15.1 SSE 12 15 1037.1 - 0.0 - - 10 - - - -
20/10:00am 15.0 SSE 10 14 1037.2 - 0.0 - Partly cloudy 10 - - - -
20/09:30am 14.3 SSE 9 13 1037.2 - 0.0 - Partly cloudy 10 - - - -
20/09:00am 12.9 WSW 7 9 1037.4 - - - Partly cloudy 10 - - - -
20/08:30am 11.7 WSW 7 9 1037.4 - - - Partly cloudy 10 - - - -
20/08:00am 10.8 W 6 8 1037.2 - - - Partly cloudy 10 - - - -
20/07:30am 7.6 NW 5 6 1036.9 - - - Partly cloudy 10 - - - -
20/07:00am 6.1 NW 6 7 1036.8 - - - Partly cloudy 10 - - - -
20/06:30am 7.1 WNW 6 7 1036.6 - - - Partly cloudy 10 - - - -
20/06:00am 7.3 WNW 7 8 1036.3 - - - Mostly cloudy 10 - - - -
20/05:30am 7.9 WNW 5 7 1036.0 - - - Partly cloudy 10 - - - -
20/05:00am 9.6 S 8 10 1035.7 - - - Partly cloudy 10 - - - -
20/04:30am 7.6 WNW 4 6 1035.7 - - - Partly cloudy 10 - - - -
20/04:00am 7.9 W 8 10 1035.5 - - - Partly cloudy 10 - - - -
20/03:30am 8.8 S 8 9 1035.2 - - - Partly cloudy 10 - - - -
20/03:00am 9.1 S 8 11 1035.3 - 1.0 Rain Mostly cloudy 10 - - - -
20/02:30am 9.8 SSE 12 17 1035.6 - - - Partly cloudy 10 - - - -
20/02:00am 9.5 SSE 10 15 1035.6 - - - Partly cloudy 10 - - - -
20/01:30am 10.0 SSE 11 15 1035.6 - - - Cloudy 10 - - - -
20/01:00am 10.0 SSE 8 11 1035.5 - - - Partly cloudy 10 - - - -
20/12:30am 10.1 SE 12 14 1035.6 - - - Partly cloudy 10 - - - -
20/12:00am 9.9 S 10 15 1035.5 - - Rain Mostly cloudy 10 - - - -
 
Date/Time
EST
Temp

°C
Wind Pressure Rain
since 9am
mm
Weather Cloud Vis
km
Sea
Height
m
Swell
Dir
 
Speed
knots
Gust
knots
hPa Trend Height
m
Period
s
Dir
19/11:30pm 9.1 SE 10 17 1035.7 - - - Partly cloudy 9 - - - -
19/11:00pm 10.5 SSW 19 24 1035.6 - - - Partly cloudy 10 - - - -
19/10:54pm 10.7 S 16 24 1035.6 - - - Partly cloudy 10 - - - -
19/10:30pm 10.3 SSE 8 12 1035.5 - - - Partly cloudy 10 - - - -
19/10:00pm 10.4 S 14 18 1035.3 - - - Partly cloudy 10 - - - -
19/09:30pm 10.1 S 18 30 1035.4 - - - Partly cloudy 10 - - - -
19/09:25pm 11.3 S 15 30 1035.3 - - - Partly cloudy 10 - - - -
19/09:00pm 10.8 S 12 16 1034.8 - - - - 10 - - - -
19/08:30pm 11.4 S 13 18 1034.5 - - - Partly cloudy 10 - - - -
19/08:00pm 11.1 S 13 17 1034.1 - - - Partly cloudy 10 - - - -
19/07:30pm 11.3 S 13 17 1033.8 - - - - 10 - - - -
19/07:00pm - - - - - - - - - - - - - -
19/06:30pm 10.4 SSW 11 16 1032.9 - 0.6 - Partly cloudy 10 - - - -
19/06:00pm 10.9 SSW 13 17 1032.4 - 0.6 - Partly cloudy 10 - - - -
19/05:30pm 11.9 S 17 22 1032.0 - 0.6 - Partly cloudy 10 - - - -
19/05:00pm 11.9 S 15 21 1031.7 - 0.6 - - 10 - - - -
19/04:30pm 12.0 S 19 26 1031.3 - 0.6 - Partly cloudy 10 - - - -
19/04:00pm 11.7 SSW 17 22 1031.1 - 0.6 - Partly cloudy 10 - - - -
19/03:30pm 11.3 S 11 19 1030.8 - 0.4 - Partly cloudy 10 - - - -
19/03:22pm 10.0 SSW 21 31 1030.9 - 0.4 - Partly cloudy 7 - - - -
19/03:00pm 13.4 SSW 19 23 1030.3 - 0.2 - Mostly clear 10 - - - -
19/02:30pm 13.3 SSW 21 26 1030.2 - 0.2 - Partly cloudy 10 - - - -
19/02:00pm 14.6 SSW 21 28 1029.8 - 0.2 - - 10 - - - -
19/01:30pm 14.4 SSW 19 25 1029.5 - 0.2 - Partly cloudy 10 - - - -
19/01:00pm 13.2 S 18 23 1029.4 - 0.2 - Partly cloudy 10 - - - -
19/12:30pm 12.5 S 19 25 1029.3 - 0.2 - Partly cloudy 10 - - - -
19/12:00pm 14.0 SSW 22 29 1029.0 - 0.0 - Cloudy 10 - - - -
19/11:30am 14.5 SSW 22 27 1028.7 - 0.0 - Partly cloudy 10 - - - -
19/11:00am 14.3 SSW 19 26 1028.3 - 0.0 - Partly cloudy 10 - - - -
19/10:44am 13.1 SSW 17 26 1028.2 - 0.0 - Partly cloudy 10 - - - -
19/10:30am 11.7 SW 12 16 1028.2 - 0.0 - Partly cloudy 10 - - - -
19/10:00am 11.1 W 12 17 1027.9 - 0.0 - Partly cloudy 10 - - - -
19/09:30am 10.3 WSW 10 13 1027.6 - 0.0 - Partly cloudy 10 - - - -
19/09:00am 8.8 WSW 8 13 1027.3 - 2.6 Showers Cloudy 10 - - - -
19/08:30am 8.9 W 12 16 1026.4 - 1.8 - Partly cloudy 10 - - - -
19/08:00am 8.9 W 11 19 1026.1 - 1.6 - Partly cloudy 10 - - - -
19/07:30am 8.5 W 6 8 1025.3 - 1.6 - Partly cloudy 10 - - - -
19/07:00am 8.9 SW 13 16 1024.5 - 1.6 - Partly cloudy 10 - - - -
19/06:30am 8.6 SW 14 24 1023.6 - 1.0 - Partly cloudy 10 - - - -
19/06:00am 8.8 WSW 15 19 1023.1 - 0.4 Showers Cloudy 10 - - - -
19/05:38am 8.7 WSW 15 24 1022.8 - 0.4 - Partly cloudy 10 - - - -
19/05:30am 7.8 W 12 15 1022.5 - 0.4 - - 10 - - - -
19/05:00am 8.1 W 12 14 1021.8 - 0.4 - Partly cloudy 10 - - - -
19/04:30am 8.6 W 9 13 1021.5 - 0.4 - Partly cloudy 10 - - - -
19/04:00am 8.4 W 11 13 1020.8 - 0.4 - Partly cloudy 10 - - - -

Other Formats:

Comma delimited format used in spreadsheet applications
http://www.bom.gov.au/fwo/IDV60701/IDV60701.94854.axf

JavaScript Object Notation format (JSON) in row-major order
http://www.bom.gov.au/fwo/IDV60701/IDV60701.94854.json